Time;durP1;ratioP1;P1;durP2;ratioP2;P2;SDS_P1;SDS_P2;PMS_P1;PMS_P2;Temp;Humidity;BMP_temperature;BMP_pressure;BME280_temperature;BME280_humidity;BME280_pressure;Samples;Min_cycle;Max_cycle;Signal;HPM_P1;HPM_P2
2022/06/07 00:00:14;;;;;;;2.37;2.20;;;20.90;99.90;;;;;;5018614;28;20183;-94
2022/06/07 00:02:40;;;;;;;3.43;2.50;;;20.90;99.90;;;;;;5036449;28;20264;-87
2022/06/07 00:05:07;;;;;;;2.93;2.27;;;20.90;99.90;;;;;;5038739;28;20200;-91
2022/06/07 00:07:33;;;;;;;2.53;2.43;;;20.90;99.90;;;;;;5053621;28;20169;-94
2022/06/07 00:09:59;;;;;;;4.40;2.57;;;21.00;99.90;;;;;;5040425;28;20200;-91
2022/06/07 00:12:25;;;;;;;2.60;2.47;;;21.00;99.90;;;;;;5037031;28;20343;-92
2022/06/07 00:14:52;;;;;;;2.67;2.50;;;20.90;99.90;;;;;;5036992;28;20172;-92
2022/06/07 00:17:18;;;;;;;2.47;2.30;;;20.90;99.90;;;;;;5038659;28;20701;-91
2022/06/07 00:19:44;;;;;;;3.20;2.40;;;20.80;99.90;;;;;;5042890;28;20177;-87
2022/06/07 00:22:10;;;;;;;2.50;2.40;;;20.80;99.90;;;;;;5043776;28;20216;-90
2022/06/07 00:24:36;;;;;;;2.27;2.10;;;20.80;99.90;;;;;;5042162;28;20263;-90
2022/06/07 00:27:03;;;;;;;2.60;2.50;;;20.80;99.90;;;;;;5043836;28;20169;-83
2022/06/07 00:29:30;;;;;;;2.60;2.40;;;20.70;99.90;;;;;;5045046;28;20169;-84
2022/06/07 00:31:56;;;;;;;2.87;2.67;;;20.70;99.90;;;;;;5024123;28;20220;-84
2022/06/07 00:34:23;;;;;;;2.33;2.23;;;20.70;99.90;;;;;;5056666;28;20164;-85
2022/06/07 00:36:51;;;;;;;2.47;2.20;;;20.70;99.90;;;;;;5038476;28;20192;-86
2022/06/07 00:39:17;;;;;;;4.50;2.50;;;20.70;99.90;;;;;;5051582;23;20731;-83
2022/06/07 00:41:43;;;;;;;2.80;2.33;;;20.70;99.90;;;;;;5006690;28;20177;-89
2022/06/07 00:44:21;;;;;;;2.30;2.20;;;20.60;99.90;;;;;;5018956;28;20687;-90
2022/06/07 00:47:37;;;;;;;2.50;2.40;;;20.60;99.90;;;;;;4998660;28;20177;-94
2022/06/07 00:50:14;;;;;;;2.80;2.60;;;20.50;99.90;;;;;;4918098;29;20712;-93
2022/06/07 00:52:40;;;;;;;2.97;2.47;;;20.60;99.90;;;;;;4917458;29;20715;-91
2022/06/07 00:55:07;;;;;;;2.53;2.33;;;20.70;99.90;;;;;;4920919;29;20180;-90
2022/06/07 00:57:34;;;;;;;2.83;2.60;;;20.60;99.90;;;;;;4934875;29;20192;-87
2022/06/07 01:00:00;;;;;;;2.47;2.27;;;20.60;99.90;;;;;;4936399;29;20184;-87
2022/06/07 01:02:28;;;;;;;2.80;2.60;;;20.50;99.90;;;;;;4911259;29;20185;-89
2022/06/07 01:04:54;;;;;;;2.90;2.10;;;20.50;99.90;;;;;;4926764;29;20236;-95
2022/06/07 01:12:50;;;;;;;2.70;2.60;;;20.60;99.90;;;;;;4916731;29;20263;-90
2022/06/07 01:15:16;;;;;;;2.50;2.30;;;20.50;99.90;;;;;;4916787;29;20173;-87
2022/06/07 01:17:42;;;;;;;2.73;2.53;;;20.60;99.90;;;;;;4916178;29;20185;-86
2022/06/07 01:20:08;;;;;;;2.73;2.53;;;20.60;99.90;;;;;;4919450;29;20180;-93
2022/06/07 01:22:34;;;;;;;2.63;2.50;;;20.60;99.90;;;;;;4917363;29;20173;-95
2022/06/07 01:25:00;;;;;;;2.60;2.50;;;20.50;99.90;;;;;;4998216;28;20208;-86
2022/06/07 01:27:26;;;;;;;2.30;2.20;;;20.40;99.90;;;;;;5030980;28;20165;-91
2022/06/07 01:29:52;;;;;;;3.33;2.87;;;20.40;99.90;;;;;;5001088;28;20181;-91
2022/06/07 01:32:18;;;;;;;2.73;2.50;;;20.40;99.90;;;;;;5021212;28;20213;-96
2022/06/07 01:34:45;;;;;;;2.70;2.50;;;20.40;99.90;;;;;;5021928;28;20173;-94
2022/06/07 01:37:14;;;;;;;2.60;2.40;;;20.40;99.90;;;;;;5017598;28;20169;-94
2022/06/07 01:42:24;;;;;;;2.37;2.27;;;20.40;99.90;;;;;;5016854;28;20199;-96
2022/06/07 01:44:51;;;;;;;2.70;2.50;;;20.30;99.90;;;;;;5017945;28;20177;-94
2022/06/07 01:47:23;;;;;;;2.73;2.53;;;20.30;99.90;;;;;;5017869;28;20223;-90
2022/06/07 01:49:49;;;;;;;2.77;2.50;;;20.30;99.90;;;;;;5002277;28;20267;-87
2022/06/07 01:52:17;;;;;;;3.00;2.80;;;20.30;99.90;;;;;;5032776;28;20212;-94
2022/06/07 01:54:43;;;;;;;2.60;2.40;;;20.40;99.90;;;;;;5000174;28;20186;-92
2022/06/07 01:57:09;;;;;;;4.40;2.43;;;20.30;99.90;;;;;;5014421;28;20238;-93
2022/06/07 01:59:38;;;;;;;2.90;2.60;;;20.30;99.90;;;;;;5017353;28;20220;-95
2022/06/07 02:02:05;;;;;;;2.20;2.10;;;20.20;99.90;;;;;;5014348;28;20181;-92
2022/06/07 02:04:32;;;;;;;3.00;2.60;;;20.10;99.90;;;;;;5015099;28;20180;-95
2022/06/07 02:06:57;;;;;;;3.23;2.73;;;20.00;99.90;;;;;;4998328;28;20181;-94
2022/06/07 02:09:23;;;;;;;4.27;2.30;;;20.00;99.90;;;;;;5015828;28;20235;-94
2022/06/07 02:11:49;;;;;;;3.07;2.50;;;19.90;99.90;;;;;;5015320;28;20244;-92
2022/06/07 02:14:15;;;;;;;2.83;2.67;;;20.00;99.90;;;;;;5021766;28;20201;-93
2022/06/07 02:16:41;;;;;;;3.97;2.87;;;20.00;99.90;;;;;;5035346;28;20165;-89
2022/06/07 02:19:07;;;;;;;2.80;2.40;;;20.00;99.90;;;;;;5038707;28;20164;-86
2022/06/07 02:21:33;;;;;;;2.60;2.20;;;20.00;99.90;;;;;;5016650;28;20204;-93
2022/06/07 02:23:59;;;;;;;2.30;2.20;;;20.00;99.90;;;;;;5014543;28;20177;-91
2022/06/07 02:26:34;;;;;;;5.70;2.30;;;19.90;99.90;;;;;;5014254;28;20184;-94
2022/06/07 02:29:03;;;;;;;3.47;2.57;;;19.90;99.90;;;;;;5016030;28;20169;-89
2022/06/07 02:31:32;;;;;;;2.83;2.43;;;20.00;99.90;;;;;;5021076;28;20197;-90
2022/06/07 02:34:00;;;;;;;4.03;2.73;;;20.00;99.90;;;;;;5014185;28;20180;-89
2022/06/07 02:36:28;;;;;;;2.90;2.33;;;20.00;99.90;;;;;;5013880;28;20245;-85
2022/06/07 02:38:54;;;;;;;2.50;2.40;;;20.00;99.90;;;;;;5013463;28;20227;-89
2022/06/07 02:41:22;;;;;;;3.13;2.37;;;19.90;99.90;;;;;;5016497;28;20187;-87
2022/06/07 02:43:48;;;;;;;2.47;2.27;;;19.80;99.90;;;;;;5016953;28;20169;-85
2022/06/07 02:46:14;;;;;;;2.53;2.43;;;19.80;99.90;;;;;;5016043;28;20592;-85
2022/06/07 02:48:40;;;;;;;2.60;2.50;;;19.80;99.90;;;;;;5015853;28;20545;-84
2022/06/07 02:51:06;;;;;;;2.80;2.53;;;19.80;99.90;;;;;;5018808;28;20177;-88
2022/06/07 02:53:32;;;;;;;2.77;2.50;;;19.80;99.90;;;;;;5014523;28;20209;-89
2022/06/07 02:55:58;;;;;;;2.63;2.50;;;19.80;99.90;;;;;;5014556;28;20181;-85
2022/06/07 02:58:25;;;;;;;3.30;2.23;;;19.80;99.90;;;;;;4995424;28;20244;-85
2022/06/07 03:00:51;;;;;;;2.80;2.60;;;19.80;99.90;;;;;;5013053;28;20180;-85
2022/06/07 03:03:17;;;;;;;3.53;2.40;;;19.70;99.90;;;;;;5025955;28;20181;-89
2022/06/07 03:05:43;;;;;;;2.87;2.67;;;19.80;99.90;;;;;;5026550;28;20532;-91
2022/06/07 03:08:10;;;;;;;5.97;2.73;;;19.80;99.90;;;;;;5013379;28;20230;-91
2022/06/07 03:10:36;;;;;;;2.57;2.47;;;19.70;99.90;;;;;;5014620;28;20228;-95
2022/06/07 03:13:05;;;;;;;3.10;2.70;;;19.60;99.90;;;;;;5014725;28;20595;-94
2022/06/07 03:15:30;;;;;;;3.20;2.90;;;19.60;99.90;;;;;;5026865;28;20185;-86
2022/06/07 03:17:56;;;;;;;7.10;2.80;;;19.70;99.90;;;;;;5025770;28;20602;-93
2022/06/07 03:20:22;;;;;;;5.43;2.73;;;19.70;99.90;;;;;;5016244;28;20641;-94
2022/06/07 03:22:48;;;;;;;2.60;2.47;;;19.60;99.90;;;;;;5014395;28;20174;-92
2022/06/07 03:25:13;;;;;;;3.03;2.73;;;19.60;99.90;;;;;;5014649;28;20256;-91
2022/06/07 03:27:40;;;;;;;2.60;2.40;;;19.70;99.90;;;;;;5014058;28;20215;-93
2022/06/07 03:30:08;;;;;;;2.90;2.70;;;19.70;99.90;;;;;;5016319;28;20181;-90
2022/06/07 03:32:35;;;;;;;3.50;3.30;;;19.70;99.90;;;;;;5014285;28;20205;-90
2022/06/07 03:35:02;;;;;;;3.70;3.07;;;19.60;99.90;;;;;;5023480;28;20187;-88
2022/06/07 03:37:27;;;;;;;4.03;3.37;;;19.60;99.90;;;;;;5030154;28;20239;-93
2022/06/07 03:39:53;;;;;;;3.03;2.83;;;19.50;99.90;;;;;;5019456;28;20696;-93
2022/06/07 03:42:19;;;;;;;3.13;2.87;;;19.60;99.90;;;;;;5016693;28;20554;-91
2022/06/07 03:44:48;;;;;;;3.13;2.97;;;19.50;99.90;;;;;;5017644;28;20237;-91
2022/06/07 03:47:18;;;;;;;5.87;3.20;;;19.50;99.90;;;;;;5002813;28;20231;-90
2022/06/07 03:49:46;;;;;;;3.73;2.97;;;19.50;99.90;;;;;;5021307;28;20181;-92
2022/06/07 03:52:12;;;;;;;3.27;2.97;;;19.50;99.90;;;;;;5020551;28;20247;-86
2022/06/07 03:54:39;;;;;;;2.90;2.67;;;19.50;99.90;;;;;;5021067;28;20173;-94
2022/06/07 03:57:06;;;;;;;5.33;2.77;;;19.40;99.90;;;;;;5021164;28;20176;-92
2022/06/07 03:59:32;;;;;;;3.00;2.80;;;19.30;99.90;;;;;;5027490;28;20169;-85
2022/06/07 04:01:57;;;;;;;2.90;2.80;;;19.30;99.90;;;;;;5038306;28;20192;-88
2022/06/07 04:04:24;;;;;;;3.03;2.80;;;19.20;99.90;;;;;;5029763;28;20166;-94
2022/06/07 04:09:41;;;;;;;4.17;2.80;;;19.30;99.90;;;;;;5031233;28;20172;-93
2022/06/07 04:12:12;;;;;;;4.80;2.77;;;19.30;99.90;;;;;;5030714;28;20224;-92
2022/06/07 04:14:42;;;;;;;6.23;2.70;;;19.40;99.90;;;;;;5027898;28;20166;-94
2022/06/07 04:17:09;;;;;;;2.93;2.60;;;19.40;99.90;;;;;;5033366;28;20217;-92
2022/06/07 04:19:39;;;;;;;3.20;3.00;;;19.40;99.90;;;;;;5033149;28;20169;-95
2022/06/07 04:22:05;;;;;;;3.00;2.90;;;19.50;99.90;;;;;;5027044;28;20540;-95
2022/06/07 04:24:32;;;;;;;4.47;3.37;;;19.40;99.90;;;;;;5031732;28;20184;-96
2022/06/07 04:27:00;;;;;;;3.57;2.70;;;19.40;99.90;;;;;;5031717;28;20175;-89
2022/06/07 04:29:26;;;;;;;3.33;3.03;;;19.40;99.90;;;;;;5012568;28;20187;-92
2022/06/07 04:31:57;;;;;;;3.50;3.20;;;19.50;99.90;;;;;;5024616;28;20209;-88
2022/06/07 04:34:23;;;;;;;3.73;3.10;;;19.50;99.90;;;;;;5004978;28;20204;-91
2022/06/07 04:36:49;;;;;;;7.07;3.53;;;19.50;99.90;;;;;;5004190;28;20185;-88
2022/06/07 04:39:15;;;;;;;3.80;3.50;;;19.70;99.90;;;;;;5019453;28;20252;-87
2022/06/07 04:41:40;;;;;;;3.90;3.10;;;19.70;99.90;;;;;;5021891;28;20173;-87
2022/06/07 04:44:07;;;;;;;3.53;3.33;;;19.80;99.90;;;;;;5017943;28;20517;-87
2022/06/07 04:46:34;;;;;;;4.60;3.90;;;19.80;99.90;;;;;;5002713;28;20187;-90
2022/06/07 04:48:59;;;;;;;5.13;3.40;;;19.90;99.90;;;;;;5024828;28;20228;-90
2022/06/07 04:51:28;;;;;;;5.20;3.73;;;20.00;99.90;;;;;;4988583;28;20566;-87
2022/06/07 04:53:55;;;;;;;3.80;3.50;;;20.00;99.90;;;;;;5024482;28;20189;-86
2022/06/07 04:56:25;;;;;;;3.50;2.97;;;20.10;99.90;;;;;;5040122;28;20188;-88
2022/06/07 04:58:52;;;;;;;5.03;3.73;;;20.20;99.90;;;;;;5048361;28;20176;-87
2022/06/07 05:01:25;;;;;;;3.77;3.37;;;20.30;99.90;;;;;;5046892;28;20188;-90
2022/06/07 05:03:52;;;;;;;3.90;3.60;;;20.40;99.90;;;;;;5026620;28;20184;-86
2022/06/07 05:06:24;;;;;;;3.80;3.50;;;20.50;99.90;;;;;;5029746;28;20244;-87
2022/06/07 05:08:55;;;;;;;5.83;3.53;;;20.60;99.90;;;;;;5025388;28;20172;-89
2022/06/07 05:11:23;;;;;;;4.40;3.57;;;20.70;99.90;;;;;;5026346;28;20261;-86
2022/06/07 05:13:54;;;;;;;6.03;3.43;;;20.80;99.90;;;;;;5026702;28;20173;-86
2022/06/07 05:16:21;;;;;;;3.73;3.37;;;20.90;99.90;;;;;;5022998;28;20165;-94
2022/06/07 05:18:51;;;;;;;4.30;3.70;;;21.00;99.90;;;;;;5027266;28;20174;-86
2022/06/07 05:21:18;;;;;;;3.80;3.50;;;21.00;99.90;;;;;;5029470;28;20217;-93
2022/06/07 05:23:44;;;;;;;3.47;3.27;;;21.10;99.90;;;;;;5021725;28;20173;-90
2022/06/07 05:26:27;;;;;;;3.47;2.83;;;21.10;99.90;;;;;;5021017;28;20713;-92
2022/06/07 05:28:55;;;;;;;3.60;3.30;;;21.20;99.90;;;;;;5024622;28;20184;-87
2022/06/07 05:31:24;;;;;;;3.40;3.10;;;21.30;99.90;;;;;;5027964;28;20227;-89
2022/06/07 05:33:51;;;;;;;3.23;2.87;;;21.40;99.90;;;;;;5025839;28;20177;-88
2022/06/07 05:36:17;;;;;;;4.03;3.20;;;21.60;99.90;;;;;;5022437;28;20633;-89
2022/06/07 05:38:42;;;;;;;6.47;3.73;;;21.70;99.90;;;;;;5005757;28;20363;-91
2022/06/07 05:41:19;;;;;;;3.43;3.23;;;21.80;99.90;;;;;;5020078;28;20630;-86
2022/06/07 05:43:45;;;;;;;3.60;2.97;;;21.90;99.90;;;;;;5033706;28;20176;-87
2022/06/07 05:46:11;;;;;;;4.27;2.83;;;22.00;99.90;;;;;;5036393;28;20170;-89
2022/06/07 05:48:37;;;;;;;3.07;2.87;;;22.00;99.90;;;;;;5020565;28;20203;-87
2022/06/07 05:51:04;;;;;;;5.03;2.87;;;22.10;99.90;;;;;;5001027;28;20235;-87
2022/06/07 05:53:29;;;;;;;4.57;3.03;;;22.10;99.90;;;;;;5015617;28;20177;-89
2022/06/07 05:55:56;;;;;;;2.60;2.40;;;22.20;99.90;;;;;;5017815;28;20584;-87
2022/06/07 05:58:25;;;;;;;4.22;2.20;;;22.20;99.90;;;;;;5003568;28;20177;-87
2022/06/07 06:00:52;;;;;;;2.43;2.30;;;22.20;99.90;;;;;;5018968;28;20566;-91
2022/06/07 06:03:17;;;;;;;2.60;2.40;;;22.30;99.90;;;;;;5019166;28;20192;-92
2022/06/07 06:05:47;;;;;;;2.60;2.50;;;22.40;99.90;;;;;;5018506;28;20644;-89
2022/06/07 06:11:14;;;;;;;2.80;2.60;;;22.50;99.90;;;;;;5001688;28;20518;-86
2022/06/07 06:13:40;;;;;;;2.75;2.50;;;22.50;99.90;;;;;;5017376;28;20189;-89
2022/06/07 06:16:09;;;;;;;2.90;2.70;;;22.70;99.90;;;;;;4999238;28;20679;-89
2022/06/07 06:18:39;;;;;;;2.35;2.25;;;22.70;99.90;;;;;;5016236;28;20180;-87
2022/06/07 06:21:06;;;;;;;7.65;2.53;;;22.80;99.90;;;;;;4997979;28;20517;-86
2022/06/07 06:23:32;;;;;;;2.70;2.50;;;22.90;99.90;;;;;;4980639;28;20185;-89
2022/06/07 06:25:58;;;;;;;3.45;2.40;;;23.00;99.90;;;;;;5012815;28;20604;-88
2022/06/07 06:28:23;;;;;;;2.92;2.50;;;23.10;99.90;;;;;;5013376;28;20209;-87
2022/06/07 06:30:49;;;;;;;4.28;3.03;;;23.10;99.90;;;;;;4995985;28;20225;-90
2022/06/07 06:33:16;;;;;;;3.83;2.60;;;23.20;99.90;;;;;;5021907;28;20696;-94
2022/06/07 06:35:51;;;;;;;3.22;2.30;;;23.20;99.90;;;;;;5016514;28;20200;-90
2022/06/07 06:38:19;;;;;;;2.70;2.50;;;23.10;99.90;;;;;;5016506;28;20224;-88
2022/06/07 06:40:45;;;;;;;2.40;2.30;;;23.00;99.90;;;;;;5018900;28;20177;-88
2022/06/07 06:43:12;;;;;;;2.13;2.03;;;23.10;99.90;;;;;;5018812;28;20172;-87
2022/06/07 06:45:39;;;;;;;2.50;2.40;;;23.40;99.90;;;;;;5002684;28;20174;-88
2022/06/07 06:48:09;;;;;;;2.33;2.13;;;23.60;99.90;;;;;;5020052;28;20314;-87
2022/06/07 06:50:38;;;;;;;2.80;2.10;;;23.90;99.90;;;;;;5016826;28;20645;-87
2022/06/07 06:53:03;;;;;;;2.35;2.13;;;24.00;99.90;;;;;;4998851;28;20564;-87
2022/06/07 06:55:31;;;;;;;4.65;2.55;;;24.10;99.90;;;;;;5019182;28;20176;-84
2022/06/07 06:57:57;;;;;;;3.10;2.30;;;24.20;99.90;;;;;;5019262;28;20248;-88
2022/06/07 07:00:23;;;;;;;2.20;2.10;;;24.20;99.90;;;;;;5017617;28;20165;-88
2022/06/07 07:02:49;;;;;;;3.72;2.10;;;24.20;99.90;;;;;;5017648;28;20176;-85
2022/06/07 07:05:16;;;;;;;2.45;2.28;;;24.20;99.90;;;;;;5022378;28;20169;-88
2022/06/07 07:07:43;;;;;;;4.88;2.35;;;24.10;99.90;;;;;;5019715;28;20181;-85
2022/06/07 07:10:10;;;;;;;2.65;2.40;;;24.00;99.90;;;;;;5018101;28;20173;-86
2022/06/07 07:12:37;;;;;;;2.10;2.00;;;23.90;99.90;;;;;;5020327;28;20252;-85
2022/06/07 07:15:06;;;;;;;2.58;2.10;;;23.80;99.90;;;;;;5023508;28;20165;-90
2022/06/07 07:17:33;;;;;;;2.00;2.00;;;23.80;99.90;;;;;;5005297;28;20645;-87
2022/06/07 07:19:59;;;;;;;3.92;2.30;;;23.70;99.90;;;;;;5003260;28;20245;-88
2022/06/07 07:22:27;;;;;;;2.42;2.33;;;23.80;99.90;;;;;;5023674;28;20247;-88
2022/06/07 07:24:53;;;;;;;3.70;2.38;;;23.90;99.90;;;;;;5010104;28;20153;-91
2022/06/07 07:27:19;;;;;;;2.22;2.13;;;23.80;99.90;;;;;;5036087;28;20192;-85
2022/06/07 07:29:46;;;;;;;2.40;2.30;;;23.60;99.90;;;;;;5030747;28;20617;-94
2022/06/07 07:32:12;;;;;;;2.20;2.10;;;23.50;99.90;;;;;;5020487;28;20193;-94
2022/06/07 07:34:38;;;;;;;2.67;2.22;;;23.40;99.90;;;;;;5021713;28;20174;-95
2022/06/07 07:37:05;;;;;;;2.40;2.30;;;23.40;99.90;;;;;;5021380;28;20184;-95
2022/06/07 07:39:31;;;;;;;2.10;2.00;;;23.40;99.90;;;;;;5018175;28;20701;-94
2022/06/07 07:41:57;;;;;;;4.07;2.30;;;23.50;99.90;;;;;;5019758;28;20173;-90
2022/06/07 07:44:26;;;;;;;2.90;2.38;;;23.70;99.90;;;;;;5020673;28;20173;-92
2022/06/07 07:46:55;;;;;;;2.45;2.20;;;23.90;99.90;;;;;;5020415;28;20175;-90
2022/06/07 07:49:23;;;;;;;2.30;2.20;;;24.10;99.90;;;;;;5018961;28;20182;-90
2022/06/07 07:51:52;;;;;;;2.60;2.10;;;24.30;99.90;;;;;;5017598;28;20209;-92
2022/06/07 07:54:20;;;;;;;2.20;2.10;;;24.50;99.90;;;;;;5017410;28;20172;-88
2022/06/07 07:56:45;;;;;;;2.03;2.00;;;24.50;99.90;;;;;;5016930;28;20188;-89
2022/06/07 07:59:18;;;;;;;2.38;2.17;;;24.50;99.90;;;;;;5017061;28;20177;-91
2022/06/07 08:01:51;;;;;;;2.15;2.05;;;24.50;99.90;;;;;;4998546;28;20181;-93
2022/06/07 08:04:24;;;;;;;2.35;2.13;;;24.40;99.90;;;;;;4998755;28;20170;-87
2022/06/07 08:07:03;;;;;;;2.88;2.10;;;24.50;99.90;;;;;;4998239;28;20209;-85
2022/06/07 08:09:29;;;;;;;3.22;2.05;;;24.60;99.90;;;;;;5015536;28;20237;-85
2022/06/07 08:11:58;;;;;;;2.70;2.60;;;24.70;99.90;;;;;;5015298;28;20213;-84
2022/06/07 08:14:24;;;;;;;2.38;2.17;;;24.80;99.90;;;;;;5015755;28;20265;-86
2022/06/07 08:16:50;;;;;;;2.60;2.33;;;25.00;99.80;;;;;;4997311;28;20361;-84
2022/06/07 08:19:29;;;;;;;2.30;2.10;;;25.10;98.90;;;;;;5000168;28;20196;-85
2022/06/07 08:21:55;;;;;;;2.28;2.17;;;25.20;98.60;;;;;;4996206;28;20231;-86
2022/06/07 08:24:21;;;;;;;2.35;2.10;;;25.50;98.40;;;;;;5016137;28;20173;-93
2022/06/07 08:26:49;;;;;;;2.05;1.90;;;25.70;98.00;;;;;;5016724;28;20177;-93
2022/06/07 08:29:16;;;;;;;2.20;2.10;;;26.00;97.60;;;;;;5017440;28;20169;-94
2022/06/07 08:31:42;;;;;;;1.98;1.95;;;26.20;97.00;;;;;;5015911;28;20200;-95
2022/06/07 08:39:41;;;;;;;2.67;2.00;;;26.60;95.50;;;;;;5015151;28;20352;-87
2022/06/07 08:42:29;;;;;;;3.20;1.92;;;26.60;95.60;;;;;;4999196;28;20261;-85
2022/06/07 08:44:59;;;;;;;2.03;2.00;;;26.60;95.90;;;;;;5022692;28;20248;-84
2022/06/07 08:47:44;;;;;;;1.83;1.73;;;26.60;95.50;;;;;;5004658;28;20165;-85
2022/06/07 08:50:22;;;;;;;1.88;1.77;;;26.60;94.40;;;;;;5020025;28;20247;-90
2022/06/07 08:52:51;;;;;;;2.03;1.92;;;26.50;93.50;;;;;;5015630;28;20602;-86
2022/06/07 08:55:33;;;;;;;3.38;1.90;;;26.50;94.60;;;;;;5015422;28;20560;-90
2022/06/07 08:58:10;;;;;;;2.05;1.95;;;26.40;95.60;;;;;;5015427;28;20220;-93
2022/06/07 09:00:37;;;;;;;1.75;1.67;;;26.40;96.20;;;;;;5015599;28;20531;-91
2022/06/07 09:03:23;;;;;;;5.13;2.10;;;26.40;94.70;;;;;;5015501;28;20780;-87
2022/06/07 09:05:58;;;;;;;2.45;2.10;;;26.40;96.10;;;;;;5016463;28;20169;-90
2022/06/07 09:08:39;;;;;;;3.40;1.90;;;26.40;95.20;;;;;;5026469;28;20180;-88
2022/06/07 09:13:53;;;;;;;2.88;2.17;;;26.40;96.10;;;;;;5021323;28;20591;-84
2022/06/07 09:16:19;;;;;;;4.13;2.28;;;26.40;96.30;;;;;;5019077;28;20208;-86
2022/06/07 09:18:45;;;;;;;8.98;3.00;;;26.40;96.40;;;;;;4997981;28;20545;-88
2022/06/07 09:21:24;;;;;;;2.35;2.17;;;26.40;96.00;;;;;;5014769;28;20173;-87
2022/06/07 09:23:50;;;;;;;2.58;2.20;;;26.40;96.40;;;;;;5016820;28;20184;-92
2022/06/07 09:26:36;;;;;;;2.30;2.20;;;26.30;97.00;;;;;;5017083;28;20708;-91
2022/06/07 09:29:07;;;;;;;3.78;2.42;;;26.30;96.80;;;;;;5016282;28;20651;-91
2022/06/07 09:31:36;;;;;;;2.67;2.20;;;26.20;97.60;;;;;;4998669;28;20205;-87
2022/06/07 09:34:07;;;;;;;4.35;2.30;;;26.20;97.10;;;;;;5023064;28;20651;-89
2022/06/07 09:36:40;;;;;;;4.80;2.25;;;26.20;97.90;;;;;;5024885;28;20233;-92
2022/06/07 09:39:26;;;;;;;2.53;2.30;;;26.20;97.50;;;;;;5005696;28;20233;-91
2022/06/07 09:42:05;;;;;;;2.60;2.40;;;26.20;97.40;;;;;;5023308;28;20169;-94
2022/06/07 09:44:56;;;;;;;2.42;2.20;;;26.30;97.40;;;;;;5002583;28;20177;-92
2022/06/07 09:47:25;;;;;;;2.17;2.08;;;26.30;97.60;;;;;;5001967;28;20545;-95
2022/06/07 09:50:18;;;;;;;2.17;2.08;;;26.40;97.30;;;;;;5019093;28;20260;-91
2022/06/07 09:52:52;;;;;;;2.92;2.72;;;26.50;97.50;;;;;;5016925;28;20220;-84
2022/06/07 09:55:36;;;;;;;3.80;2.88;;;26.50;96.50;;;;;;4997703;28;20173;-85
2022/06/07 09:58:23;;;;;;;2.63;2.42;;;26.60;94.90;;;;;;5018141;28;20177;-94
2022/06/07 10:00:58;;;;;;;2.70;2.50;;;26.70;95.00;;;;;;5001549;28;20191;-94
2022/06/07 10:03:39;;;;;;;2.10;2.10;;;26.80;95.70;;;;;;5004246;28;20183;-91
2022/06/07 10:06:18;;;;;;;2.83;2.10;;;27.00;95.70;;;;;;5020958;28;20256;-92
2022/06/07 10:08:52;;;;;;;2.17;2.08;;;27.20;94.50;;;;;;5021094;28;20204;-92
2022/06/07 10:11:25;;;;;;;1.90;1.80;;;27.60;94.60;;;;;;5020416;28;20187;-91
2022/06/07 10:14:16;;;;;;;2.17;2.08;;;27.70;92.60;;;;;;5007851;28;20200;-96
2022/06/07 10:16:54;;;;;;;2.38;2.28;;;27.80;93.40;;;;;;5029184;28;20212;-92
2022/06/07 10:19:41;;;;;;;3.10;2.13;;;27.80;93.20;;;;;;5025721;28;20268;-94
2022/06/07 10:22:26;;;;;;;2.20;2.10;;;27.70;93.70;;;;;;5027553;28;20231;-88
2022/06/07 10:25:10;;;;;;;3.03;2.53;;;27.50;94.10;;;;;;5025094;28;20189;-94
2022/06/07 10:27:52;;;;;;;2.50;2.33;;;27.40;94.70;;;;;;5026364;28;20180;-87
2022/06/07 10:30:58;;;;;;;2.70;2.60;;;27.50;95.60;;;;;;5030026;28;20242;-86
2022/06/07 10:33:50;;;;;;;3.60;3.03;;;27.50;95.80;;;;;;5030626;28;20220;-84
2022/06/07 10:36:51;;;;;;;2.38;2.28;;;27.40;96.80;;;;;;5030001;28;20180;-85
2022/06/07 10:39:35;;;;;;;2.80;2.40;;;27.30;95.30;;;;;;5004036;28;20290;-93
2022/06/07 10:42:33;;;;;;;2.78;2.58;;;27.20;96.30;;;;;;5023708;28;20173;-88
2022/06/07 10:45:25;;;;;;;2.65;2.22;;;27.10;96.30;;;;;;5024254;28;20157;-87
2022/06/07 10:48:23;;;;;;;2.40;2.30;;;27.00;96.10;;;;;;5014578;28;20268;-88
2022/06/07 10:52:20;;;;;;;2.38;2.28;;;27.00;95.60;;;;;;5032879;28;20192;-87
2022/06/07 10:54:05;;;;;;;2.60;2.40;;;27.00;95.60;;;;;;5033546;28;20181;-85
2022/06/07 10:56:42;;;;;;;2.50;2.40;;;27.00;95.80;;;;;;4986795;28;20216;-90
2022/06/07 10:59:19;;;;;;;2.50;2.40;;;27.10;95.80;;;;;;5014117;28;20178;-92
2022/06/07 11:02:12;;;;;;;2.25;2.08;;;27.30;95.60;;;;;;5009637;28;20161;-85
2022/06/07 11:10:45;;;;;;;2.25;2.15;;;27.30;95.00;;;;;;5007928;28;20184;-84
2022/06/07 11:13:32;;;;;;;3.00;2.25;;;27.50;95.00;;;;;;4990788;28;20229;-85
2022/06/07 11:16:03;;;;;;;2.30;2.10;;;27.70;94.50;;;;;;4993759;28;20229;-87
2022/06/07 11:18:33;;;;;;;2.40;2.22;;;27.90;94.20;;;;;;4996145;28;20177;-84
2022/06/07 11:21:04;;;;;;;2.20;2.10;;;27.90;92.80;;;;;;4990732;28;20182;-85
2022/06/07 11:23:33;;;;;;;5.70;2.05;;;27.80;93.80;;;;;;4986681;28;20224;-89
2022/06/07 11:26:08;;;;;;;2.88;2.00;;;27.70;93.50;;;;;;5006020;28;20166;-85
2022/06/07 11:28:39;;;;;;;1.92;1.80;;;27.60;92.80;;;;;;4987383;28;20649;-86
2022/06/07 11:31:23;;;;;;;1.75;1.65;;;27.40;93.80;;;;;;5002079;28;20206;-86
2022/06/07 11:34:01;;;;;;;2.33;1.85;;;27.20;93.50;;;;;;4999277;28;20260;-87
2022/06/07 11:36:34;;;;;;;1.73;1.73;;;26.90;93.70;;;;;;4980862;28;20236;-86
2022/06/07 11:39:18;;;;;;;2.08;1.98;;;26.70;90.90;;;;;;5004899;28;20222;-88
2022/06/07 11:41:51;;;;;;;1.85;1.75;;;26.60;91.50;;;;;;4995954;28;20162;-94
2022/06/07 11:44:34;;;;;;;2.28;2.05;;;26.80;92.80;;;;;;5017160;28;20184;-87
2022/06/07 11:47:20;;;;;;;2.08;1.98;;;27.00;92.40;;;;;;4992630;28;20173;-86
2022/06/07 11:49:46;;;;;;;2.67;2.47;;;27.10;91.80;;;;;;5008860;28;20162;-88
2022/06/07 11:52:13;;;;;;;2.28;2.17;;;27.30;92.10;;;;;;4992671;28;20232;-86
2022/06/07 11:55:14;;;;;;;2.72;2.00;;;27.30;91.60;;;;;;5011803;28;20201;-91
2022/06/07 11:58:02;;;;;;;2.28;2.10;;;27.50;92.40;;;;;;4987649;28;20248;-95
2022/06/07 12:00:28;;;;;;;2.20;2.10;;;27.80;92.70;;;;;;5010510;28;20154;-91
2022/06/07 12:03:00;;;;;;;2.10;2.00;;;28.00;93.40;;;;;;5011970;28;20241;-85
2022/06/07 12:05:48;;;;;;;2.05;1.95;;;28.10;92.90;;;;;;5012360;28;20162;-85
2022/06/07 12:08:40;;;;;;;2.25;2.15;;;28.20;92.70;;;;;;5013542;28;20162;-86
2022/06/07 12:11:41;;;;;;;2.72;2.00;;;28.20;92.90;;;;;;4994597;28;20200;-92
2022/06/07 12:14:49;;;;;;;2.47;2.20;;;28.20;92.40;;;;;;4935085;29;20196;-96
2022/06/07 12:17:33;;;;;;;2.40;2.30;;;28.20;92.90;;;;;;4936308;29;20225;-86
2022/06/07 12:19:59;;;;;;;2.40;1.83;;;28.00;91.70;;;;;;4932295;29;20196;-89
2022/06/07 12:22:40;;;;;;;1.80;1.70;;;28.00;94.00;;;;;;4921713;29;20181;-86
2022/06/07 12:25:18;;;;;;;2.00;1.90;;;27.70;91.90;;;;;;4939245;29;20227;-85
2022/06/07 12:28:00;;;;;;;1.80;1.80;;;27.80;91.00;;;;;;4934460;29;20173;-96
2022/06/07 12:30:32;;;;;;;2.08;1.98;;;27.80;90.60;;;;;;4921332;29;20180;-92
2022/06/07 12:33:24;;;;;;;5.32;2.00;;;27.80;91.50;;;;;;4935943;29;20216;-85
2022/06/07 12:36:19;;;;;;;2.22;2.08;;;27.80;92.60;;;;;;4952072;28;20180;-96
2022/06/07 12:38:48;;;;;;;2.17;2.00;;;27.90;92.30;;;;;;4960027;28;20231;-85
2022/06/07 12:41:20;;;;;;;2.10;2.00;;;27.90;93.10;;;;;;4958099;29;20191;-87
2022/06/07 12:43:51;;;;;;;2.05;1.95;;;27.90;92.30;;;;;;4952969;29;20195;-92
2022/06/07 12:46:30;;;;;;;2.83;2.05;;;27.90;92.70;;;;;;4954063;29;20184;-93
2022/06/07 12:49:01;;;;;;;1.92;1.77;;;27.90;92.50;;;;;;4933414;29;20179;-86
2022/06/07 12:51:37;;;;;;;2.20;2.10;;;27.90;92.60;;;;;;4973999;28;20182;-85
2022/06/07 12:54:15;;;;;;;2.78;1.90;;;27.90;93.30;;;;;;5008450;28;20186;-87
2022/06/07 12:56:46;;;;;;;1.90;1.80;;;27.90;93.30;;;;;;4991850;28;20198;-84
2022/06/07 12:59:22;;;;;;;2.00;1.90;;;27.70;93.40;;;;;;4986720;28;20177;-89
2022/06/07 13:01:51;;;;;;;1.77;1.75;;;27.50;93.40;;;;;;5005565;28;20185;-89
2022/06/07 13:04:37;;;;;;;2.38;2.17;;;27.30;92.90;;;;;;5006812;28;20174;-87
2022/06/07 13:07:12;;;;;;;2.08;1.98;;;27.20;93.40;;;;;;5009156;28;20177;-87
2022/06/07 13:09:39;;;;;;;2.33;2.22;;;27.10;94.20;;;;;;5011076;28;20238;-90
2022/06/07 13:12:06;;;;;;;2.33;2.22;;;27.00;93.00;;;;;;5011184;28;20198;-85
2022/06/07 13:14:32;;;;;;;3.88;2.10;;;26.90;93.30;;;;;;5008450;28;20178;-85
2022/06/07 13:20:05;;;;;;;1.90;1.80;;;26.70;93.90;;;;;;5062469;23;20703;-85
2022/06/07 13:22:48;;;;;;;2.50;2.40;;;26.80;94.10;;;;;;5063365;28;20178;-84
2022/06/07 13:25:23;;;;;;;2.90;2.70;;;26.90;94.20;;;;;;5070803;28;20160;-85
2022/06/07 13:28:19;;;;;;;2.22;2.13;;;27.10;93.30;;;;;;5048953;28;20266;-85
2022/06/07 13:30:50;;;;;;;2.28;2.00;;;27.30;93.50;;;;;;5075507;23;20297;-86
2022/06/07 13:33:39;;;;;;;4.10;2.00;;;27.50;92.60;;;;;;5087342;28;20202;-86
2022/06/07 13:36:26;;;;;;;2.03;1.92;;;27.60;91.70;;;;;;5088843;22;20235;-85
2022/06/07 13:38:54;;;;;;;2.40;2.17;;;27.70;90.80;;;;;;5063962;28;20179;-85
2022/06/07 13:41:25;;;;;;;2.08;2.00;;;27.70;90.90;;;;;;5066905;28;20171;-85